Time;durP1;ratioP1;P1;durP2;ratioP2;P2;SDS_P1;SDS_P2;PMS_P1;PMS_P2;Temp;Humidity;BMP_temperature;BMP_pressure;BME280_temperature;BME280_humidity;BME280_pressure;Samples;Min_cycle;Max_cycle;Signal;HPM_P1;HPM_P2
2024/02/06 00:00:05;;;;;;;11.38;3.95;;;11.50;99.90;;;;;;5101339;28;20075;-61
2024/02/06 00:02:31;;;;;;;13.85;3.13;;;11.50;99.90;;;;;;5092536;28;20081;-63
2024/02/06 00:04:58;;;;;;;15.90;2.83;;;11.50;99.90;;;;;;5094294;28;20052;-60
2024/02/06 00:07:26;;;;;;;26.15;3.92;;;11.40;99.90;;;;;;5095877;28;20046;-61
2024/02/06 00:10:01;;;;;;;17.13;2.65;;;11.50;99.90;;;;;;5105059;28;20445;-61
2024/02/06 00:12:29;;;;;;;16.70;2.88;;;11.50;99.90;;;;;;5095355;28;20607;-61
2024/02/06 00:14:55;;;;;;;12.68;3.38;;;11.50;99.90;;;;;;5091350;28;20427;-61
2024/02/06 00:17:22;;;;;;;17.15;3.53;;;11.50;99.90;;;;;;5098451;28;20044;-61
2024/02/06 00:19:49;;;;;;;16.58;3.30;;;11.50;99.90;;;;;;5104611;28;20096;-60
2024/02/06 00:22:16;;;;;;;23.55;4.05;;;11.50;99.90;;;;;;5093384;28;20050;-60
2024/02/06 00:24:43;;;;;;;24.23;3.88;;;11.50;99.90;;;;;;5104233;28;20052;-61
2024/02/06 00:27:10;;;;;;;17.55;3.38;;;11.50;99.90;;;;;;5096024;28;20090;-61
2024/02/06 00:29:36;;;;;;;16.88;2.67;;;11.50;99.90;;;;;;5097508;28;20124;-61
2024/02/06 00:32:04;;;;;;;17.52;2.90;;;11.50;99.90;;;;;;5092735;28;20101;-61
2024/02/06 00:34:31;;;;;;;19.30;3.97;;;11.50;99.90;;;;;;5107398;28;20093;-61
2024/02/06 00:36:58;;;;;;;17.73;3.45;;;11.50;99.90;;;;;;5098214;28;20048;-61
2024/02/06 00:39:25;;;;;;;21.75;3.95;;;11.50;99.90;;;;;;5101800;28;20051;-62
2024/02/06 00:41:52;;;;;;;31.23;5.10;;;11.40;99.90;;;;;;5094553;28;20039;-62
2024/02/06 00:44:19;;;;;;;24.60;4.63;;;11.40;99.90;;;;;;5098910;28;20135;-62
2024/02/06 00:46:46;;;;;;;22.13;3.80;;;11.40;99.90;;;;;;5101100;28;20078;-62
2024/02/06 00:49:14;;;;;;;19.50;3.97;;;11.40;99.90;;;;;;5102935;28;20518;-62
2024/02/06 00:51:42;;;;;;;24.00;3.80;;;11.40;99.90;;;;;;5100013;28;20047;-62
2024/02/06 00:54:09;;;;;;;22.17;3.63;;;11.40;99.90;;;;;;5102152;28;20055;-62
2024/02/06 00:56:35;;;;;;;22.60;5.22;;;11.40;99.90;;;;;;5102082;28;20613;-62
2024/02/06 00:59:02;;;;;;;15.48;3.40;;;11.40;99.90;;;;;;5097843;28;20078;-62
2024/02/06 01:01:29;;;;;;;15.57;4.00;;;11.40;99.90;;;;;;5096386;28;20652;-62
2024/02/06 01:03:56;;;;;;;21.05;6.07;;;11.40;99.90;;;;;;5096377;28;20044;-62
2024/02/06 01:06:24;;;;;;;17.70;3.58;;;11.50;99.90;;;;;;5100166;28;20102;-62
2024/02/06 01:08:51;;;;;;;21.75;4.13;;;11.50;99.90;;;;;;5099352;28;20051;-61
2024/02/06 01:11:18;;;;;;;24.73;4.03;;;11.50;99.90;;;;;;5100426;28;20036;-61
2024/02/06 01:13:45;;;;;;;18.13;3.83;;;11.50;99.90;;;;;;5100038;28;20048;-61
2024/02/06 01:16:11;;;;;;;26.17;5.15;;;11.50;99.90;;;;;;5095435;28;20050;-62
2024/02/06 01:18:38;;;;;;;21.48;3.63;;;11.50;99.90;;;;;;5096026;28;20550;-62
2024/02/06 01:21:05;;;;;;;24.48;4.75;;;11.50;99.90;;;;;;5101011;28;20051;-62
2024/02/06 01:23:32;;;;;;;15.75;2.65;;;11.50;99.90;;;;;;5101058;28;20130;-61
2024/02/06 01:25:59;;;;;;;14.45;2.45;;;11.50;99.90;;;;;;5103207;28;20492;-61
2024/02/06 01:28:25;;;;;;;16.70;2.88;;;11.40;99.90;;;;;;5103310;28;20049;-61
2024/02/06 01:30:52;;;;;;;24.48;3.03;;;11.50;99.90;;;;;;5098206;28;20499;-61
2024/02/06 01:33:19;;;;;;;21.38;3.63;;;11.50;99.90;;;;;;5100587;28;20079;-61
2024/02/06 01:35:46;;;;;;;21.65;3.90;;;11.60;99.90;;;;;;5100203;28;20086;-61
2024/02/06 01:38:13;;;;;;;11.68;2.70;;;11.60;99.90;;;;;;5095475;28;20052;-61
2024/02/06 01:40:41;;;;;;;27.42;4.55;;;11.50;99.90;;;;;;5095396;28;20040;-61
2024/02/06 01:43:09;;;;;;;15.65;3.22;;;11.60;99.90;;;;;;5104325;28;20472;-61
2024/02/06 01:45:36;;;;;;;18.80;3.33;;;11.60;99.90;;;;;;5093225;28;20056;-61
2024/02/06 01:48:04;;;;;;;14.73;4.55;;;11.70;99.90;;;;;;5099487;28;20630;-61
2024/02/06 01:50:31;;;;;;;15.43;3.42;;;11.60;99.90;;;;;;5094866;28;20082;-61
2024/02/06 01:52:57;;;;;;;18.13;4.50;;;11.70;99.90;;;;;;5099598;28;20057;-61
2024/02/06 01:55:24;;;;;;;14.25;2.90;;;11.70;99.90;;;;;;5091620;28;20044;-62
2024/02/06 01:57:51;;;;;;;19.42;3.55;;;11.70;99.90;;;;;;5095711;28;20047;-61
2024/02/06 02:00:18;;;;;;;17.23;3.00;;;11.80;99.90;;;;;;5100695;28;20073;-61
2024/02/06 02:02:45;;;;;;;15.90;2.83;;;11.70;99.90;;;;;;5105043;28;20101;-61
2024/02/06 02:05:12;;;;;;;17.88;2.90;;;11.70;99.90;;;;;;5079657;28;20507;-61
2024/02/06 02:07:39;;;;;;;17.20;2.88;;;11.80;99.90;;;;;;5098657;28;20089;-61
2024/02/06 02:10:07;;;;;;;18.42;2.65;;;11.80;99.90;;;;;;5102854;28;20153;-61
2024/02/06 02:12:35;;;;;;;9.55;2.58;;;11.80;99.90;;;;;;5102391;28;20054;-61
2024/02/06 02:15:03;;;;;;;13.13;2.78;;;11.80;99.90;;;;;;5062868;28;20044;-61
2024/02/06 02:17:30;;;;;;;25.77;3.40;;;11.80;99.90;;;;;;5099024;28;20672;-61
2024/02/06 02:19:57;;;;;;;18.00;2.80;;;11.80;99.90;;;;;;5100523;28;20059;-61
2024/02/06 02:22:24;;;;;;;18.15;3.50;;;11.80;99.90;;;;;;5096267;28;20047;-61
2024/02/06 02:24:51;;;;;;;17.27;2.75;;;11.90;99.90;;;;;;5087494;28;20047;-61
2024/02/06 02:27:18;;;;;;;10.57;2.47;;;11.90;99.90;;;;;;5094834;27;20047;-61
2024/02/06 02:29:46;;;;;;;15.82;3.08;;;11.90;99.90;;;;;;5091024;28;20501;-61
2024/02/06 02:32:13;;;;;;;14.10;2.80;;;11.90;99.90;;;;;;5097667;28;20044;-61
2024/02/06 02:34:46;;;;;;;12.40;3.45;;;11.90;99.90;;;;;;5093349;28;20098;-61
2024/02/06 02:37:13;;;;;;;;;;;11.90;99.90;;;;;;5102109;28;20047;-61
2024/02/06 02:39:40;;;;;;;12.18;2.22;;;11.90;99.90;;;;;;5106280;28;19923;-61
2024/02/06 02:42:08;;;;;;;14.43;2.40;;;11.90;99.90;;;;;;5097759;28;20039;-62
2024/02/06 02:44:34;;;;;;;14.73;3.15;;;11.90;99.90;;;;;;5108031;28;20488;-61
2024/02/06 02:47:02;;;;;;;17.73;2.83;;;11.90;99.90;;;;;;5096026;28;20143;-60
2024/02/06 02:49:28;;;;;;;15.38;3.45;;;11.90;99.90;;;;;;5101804;28;20043;-60
2024/02/06 02:51:55;;;;;;;13.18;2.30;;;11.90;99.90;;;;;;5101609;28;20056;-60
2024/02/06 02:54:27;;;;;;;11.73;2.63;;;11.90;99.90;;;;;;5102954;28;20051;-60
2024/02/06 02:56:56;;;;;;;20.63;4.40;;;11.90;99.90;;;;;;5095132;28;20135;-60
2024/02/06 02:59:23;;;;;;;18.90;3.88;;;11.90;99.90;;;;;;5102131;27;20496;-60
2024/02/06 03:01:50;;;;;;;11.25;3.15;;;11.90;99.90;;;;;;5107143;28;20039;-60
2024/02/06 03:04:17;;;;;;;20.35;3.53;;;11.90;99.90;;;;;;5107165;28;20070;-60
2024/02/06 03:06:44;;;;;;;22.42;4.20;;;11.80;99.90;;;;;;5100991;28;20048;-61
2024/02/06 03:09:15;;;;;;;17.13;3.47;;;11.80;99.90;;;;;;5095981;28;20101;-61
2024/02/06 03:11:42;;;;;;;22.10;2.72;;;11.80;99.90;;;;;;5107271;28;20376;-60
2024/02/06 03:14:08;;;;;;;15.65;3.47;;;11.80;99.90;;;;;;5095556;28;20044;-61
2024/02/06 03:16:36;;;;;;;26.25;5.45;;;11.80;99.90;;;;;;5094238;28;20619;-61
2024/02/06 03:19:03;;;;;;;24.35;3.65;;;11.80;99.90;;;;;;5099253;28;20051;-61
2024/02/06 03:21:30;;;;;;;24.05;4.60;;;11.80;99.90;;;;;;5105232;28;20090;-61
2024/02/06 03:23:57;;;;;;;24.85;4.18;;;11.80;99.90;;;;;;5098494;28;20040;-61
2024/02/06 03:26:24;;;;;;;23.35;4.05;;;11.80;99.90;;;;;;5104114;28;20647;-62
2024/02/06 03:28:51;;;;;;;21.95;3.53;;;11.80;99.90;;;;;;5096447;28;20231;-61
2024/02/06 03:31:18;;;;;;;23.55;4.57;;;11.80;99.90;;;;;;5104374;28;20052;-61
2024/02/06 03:33:45;;;;;;;21.08;2.92;;;11.80;99.90;;;;;;5096436;28;20079;-61
2024/02/06 03:36:12;;;;;;;17.15;3.45;;;11.80;99.90;;;;;;5105833;28;20051;-61
2024/02/06 03:38:39;;;;;;;15.98;3.47;;;11.80;99.90;;;;;;5097951;28;20051;-61
2024/02/06 03:41:06;;;;;;;25.23;3.78;;;11.90;99.90;;;;;;5082032;28;20043;-61
2024/02/06 03:43:33;;;;;;;24.00;4.30;;;11.80;99.90;;;;;;5098614;28;20044;-61
2024/02/06 03:45:59;;;;;;;23.65;3.80;;;11.80;99.90;;;;;;5094561;28;20063;-61
2024/02/06 03:48:26;;;;;;;27.83;3.83;;;11.80;99.90;;;;;;5101860;28;20077;-61
2024/02/06 03:50:53;;;;;;;15.70;3.50;;;11.80;99.90;;;;;;5095284;28;20054;-61
2024/02/06 03:53:20;;;;;;;23.33;4.15;;;11.80;99.90;;;;;;5098974;28;20043;-61
2024/02/06 03:55:47;;;;;;;15.85;3.40;;;11.90;99.90;;;;;;5102049;28;20062;-61
2024/02/06 03:58:14;;;;;;;21.52;2.78;;;11.90;99.90;;;;;;5103123;28;20052;-61
2024/02/06 04:00:43;;;;;;;26.08;4.30;;;11.90;99.90;;;;;;5090341;28;20054;-61
2024/02/06 04:03:10;;;;;;;21.17;3.40;;;11.80;99.90;;;;;;5093794;28;20040;-61
2024/02/06 04:05:37;;;;;;;18.40;3.90;;;11.80;99.90;;;;;;5096400;28;20047;-61
2024/02/06 04:08:04;;;;;;;19.75;3.83;;;11.80;99.90;;;;;;5104341;28;20078;-61
2024/02/06 04:10:31;;;;;;;21.67;3.10;;;11.80;99.90;;;;;;5093918;28;20043;-61
2024/02/06 04:12:58;;;;;;;16.58;6.22;;;11.80;99.90;;;;;;5095945;28;21642;-61
2024/02/06 04:15:25;;;;;;;18.52;3.40;;;12.00;99.90;;;;;;5101557;28;20043;-61
2024/02/06 04:17:51;;;;;;;19.55;3.55;;;11.80;99.90;;;;;;5107124;28;20203;-62
2024/02/06 04:20:18;;;;;;;17.33;3.85;;;11.80;99.90;;;;;;5091534;28;20044;-61
2024/02/06 04:22:45;;;;;;;34.78;4.00;;;11.80;99.90;;;;;;5101128;28;20044;-61
2024/02/06 04:25:12;;;;;;;19.50;3.42;;;11.90;99.90;;;;;;5095185;28;20137;-63
2024/02/06 04:27:39;;;;;;;12.63;3.00;;;11.90;99.90;;;;;;5103239;28;20077;-61
2024/02/06 04:30:07;;;;;;;18.75;3.22;;;11.90;99.90;;;;;;5098535;28;20563;-61
2024/02/06 04:32:34;;;;;;;22.05;4.82;;;11.90;99.90;;;;;;5079505;28;20040;-61
2024/02/06 04:35:01;;;;;;;19.75;3.47;;;11.90;99.90;;;;;;5096250;28;20048;-61
2024/02/06 04:37:28;;;;;;;21.17;4.45;;;11.90;99.90;;;;;;5096294;28;20043;-62
2024/02/06 04:39:55;;;;;;;32.22;4.13;;;12.00;99.90;;;;;;5094873;28;20044;-61
2024/02/06 04:42:22;;;;;;;19.10;3.58;;;12.00;99.90;;;;;;5103321;28;20492;-61
2024/02/06 04:44:49;;;;;;;25.95;4.75;;;12.00;99.90;;;;;;5102645;28;20512;-61
2024/02/06 04:47:16;;;;;;;19.17;5.32;;;12.00;99.90;;;;;;5101344;28;20463;-61
2024/02/06 04:49:42;;;;;;;17.48;3.47;;;12.00;99.90;;;;;;5098235;28;20040;-61
2024/02/06 04:52:09;;;;;;;21.60;4.22;;;12.00;99.90;;;;;;5095298;28;20105;-62
2024/02/06 04:54:36;;;;;;;16.67;3.30;;;12.00;99.90;;;;;;5094588;28;20169;-62
2024/02/06 04:57:03;;;;;;;18.63;3.08;;;12.10;99.90;;;;;;5092409;28;20063;-61
2024/02/06 04:59:32;;;;;;;16.90;3.72;;;12.20;99.90;;;;;;5099943;28;20545;-61
2024/02/06 05:01:59;;;;;;;13.68;3.72;;;12.20;99.90;;;;;;5102152;28;20771;-61
2024/02/06 05:04:26;;;;;;;21.15;3.50;;;12.20;99.90;;;;;;5098580;28;20052;-61
2024/02/06 05:06:52;;;;;;;18.67;3.70;;;12.20;99.90;;;;;;5096235;28;20536;-61
2024/02/06 05:09:19;;;;;;;18.85;3.05;;;12.20;99.90;;;;;;5100169;28;20135;-61
2024/02/06 05:11:46;;;;;;;19.08;3.50;;;12.20;99.90;;;;;;5098752;28;20053;-61
2024/02/06 05:14:13;;;;;;;17.77;4.53;;;12.20;99.90;;;;;;5098427;28;20040;-61
2024/02/06 05:16:40;;;;;;;24.98;4.30;;;12.10;99.90;;;;;;5102816;28;20047;-61
2024/02/06 05:19:13;;;;;;;23.38;5.20;;;12.20;99.90;;;;;;5096475;28;20071;-61
2024/02/06 05:21:40;;;;;;;22.90;5.03;;;12.20;99.90;;;;;;5102334;28;20047;-62
2024/02/06 05:24:10;;;;;;;22.13;3.22;;;12.10;99.90;;;;;;5097277;28;20040;-61
2024/02/06 05:26:37;;;;;;;13.50;2.97;;;12.10;99.90;;;;;;5091603;28;20048;-61
2024/02/06 05:29:05;;;;;;;23.05;3.65;;;12.00;99.90;;;;;;5090631;28;20051;-60
2024/02/06 05:31:32;;;;;;;28.67;5.00;;;12.00;99.90;;;;;;5089607;28;20053;-61
2024/02/06 05:33:59;;;;;;;22.13;3.92;;;12.00;99.90;;;;;;5099075;28;20097;-61
2024/02/06 05:36:26;;;;;;;26.65;3.85;;;12.00;99.90;;;;;;5092572;28;20166;-61
2024/02/06 05:38:53;;;;;;;16.00;3.45;;;11.90;99.90;;;;;;5090480;28;20040;-61
2024/02/06 05:41:20;;;;;;;18.83;2.83;;;12.00;99.90;;;;;;5090183;28;20054;-60
2024/02/06 05:43:46;;;;;;;19.75;3.80;;;12.00;99.90;;;;;;5098349;28;20075;-61
2024/02/06 05:46:14;;;;;;;26.15;4.75;;;12.00;99.90;;;;;;5104230;28;20083;-61
2024/02/06 05:48:41;;;;;;;15.18;3.28;;;12.00;99.90;;;;;;5094981;28;20506;-60
2024/02/06 05:51:08;;;;;;;24.95;3.30;;;12.00;99.90;;;;;;5105152;28;20551;-60
2024/02/06 05:53:35;;;;;;;15.38;2.75;;;12.00;99.90;;;;;;5092662;28;20043;-60
2024/02/06 05:56:06;;;;;;;16.48;4.72;;;12.10;99.90;;;;;;5097135;28;20412;-60
2024/02/06 05:58:36;;;;;;;24.65;4.50;;;12.10;99.90;;;;;;5095726;28;20040;-60
2024/02/06 06:01:03;;;;;;;24.05;4.45;;;12.10;99.90;;;;;;5104817;28;20054;-60
2024/02/06 06:03:31;;;;;;;11.52;3.22;;;12.10;99.90;;;;;;5098926;28;20035;-60
2024/02/06 06:05:58;;;;;;;22.00;3.88;;;12.10;99.90;;;;;;5099064;28;20069;-60
2024/02/06 06:08:25;;;;;;;16.27;4.22;;;12.10;99.90;;;;;;5106217;28;20076;-60
2024/02/06 06:10:52;;;;;;;12.30;3.63;;;12.10;99.90;;;;;;5101133;28;20166;-60
2024/02/06 06:13:19;;;;;;;22.17;3.10;;;12.00;99.90;;;;;;5102225;27;20051;-60
2024/02/06 06:15:46;;;;;;;10.48;2.28;;;12.10;99.90;;;;;;5103893;28;20044;-60
2024/02/06 06:18:12;;;;;;;16.02;2.85;;;12.00;99.90;;;;;;5104535;28;20036;-60
2024/02/06 06:20:40;;;;;;;11.88;2.63;;;12.00;99.90;;;;;;5101176;28;20090;-60
2024/02/06 06:23:06;;;;;;;14.77;2.55;;;12.00;99.90;;;;;;5106344;28;20043;-61
2024/02/06 06:25:33;;;;;;;13.10;2.58;;;12.00;99.90;;;;;;5106268;28;20051;-62
2024/02/06 06:28:00;;;;;;;15.38;2.88;;;12.00;99.90;;;;;;5091735;28;20496;-61
2024/02/06 06:30:27;;;;;;;14.95;2.97;;;12.00;99.90;;;;;;5106960;28;20051;-61
2024/02/06 06:32:54;;;;;;;11.05;2.42;;;12.10;99.90;;;;;;5095216;28;20143;-60
2024/02/06 06:35:21;;;;;;;14.70;3.30;;;12.10;99.90;;;;;;5100220;28;20104;-60
2024/02/06 06:37:48;;;;;;;16.08;2.67;;;12.10;99.90;;;;;;5104675;28;20043;-60
2024/02/06 06:40:16;;;;;;;12.88;2.50;;;12.10;99.90;;;;;;5097851;28;20048;-60
2024/02/06 06:42:43;;;;;;;13.65;3.40;;;12.20;99.90;;;;;;5094141;28;20071;-60
2024/02/06 06:45:09;;;;;;;14.82;3.22;;;12.20;99.90;;;;;;5102075;28;20204;-59
2024/02/06 06:47:36;;;;;;;13.75;3.10;;;12.20;99.90;;;;;;5093192;28;20050;-60
2024/02/06 06:50:04;;;;;;;15.95;4.57;;;12.20;99.90;;;;;;5096839;28;20047;-60
2024/02/06 06:52:31;;;;;;;11.95;2.90;;;12.20;99.90;;;;;;5095419;28;20051;-60
2024/02/06 06:54:58;;;;;;;16.48;2.80;;;12.20;99.90;;;;;;5096594;28;20055;-61
2024/02/06 06:57:25;;;;;;;17.38;3.40;;;12.20;99.90;;;;;;5100560;28;20040;-61
2024/02/06 06:59:52;;;;;;;11.23;2.25;;;12.20;99.90;;;;;;5100279;28;20059;-61
2024/02/06 07:02:19;;;;;;;21.33;4.30;;;12.20;99.90;;;;;;5098379;28;20519;-61
2024/02/06 07:04:46;;;;;;;15.52;3.22;;;12.20;99.90;;;;;;5101088;28;20543;-61
2024/02/06 07:07:13;;;;;;;26.88;4.18;;;12.20;99.90;;;;;;5102074;28;20051;-60
2024/02/06 07:09:40;;;;;;;21.98;2.88;;;12.20;99.90;;;;;;5094386;28;20610;-61
2024/02/06 07:12:07;;;;;;;24.00;3.10;;;12.20;99.90;;;;;;5095333;28;20139;-61
2024/02/06 07:14:35;;;;;;;12.98;3.38;;;12.20;99.90;;;;;;5091811;28;20059;-61
2024/02/06 07:17:02;;;;;;;17.77;3.13;;;12.20;99.90;;;;;;5097673;28;20044;-60
2024/02/06 07:19:28;;;;;;;16.95;3.58;;;12.20;99.90;;;;;;5100827;28;20083;-61
2024/02/06 07:21:56;;;;;;;20.73;5.55;;;12.20;99.90;;;;;;5102038;28;20051;-62
2024/02/06 07:24:26;;;;;;;12.95;2.58;;;12.20;99.90;;;;;;5099257;28;20039;-60
2024/02/06 07:26:53;;;;;;;13.15;2.58;;;12.20;99.90;;;;;;5099532;28;20134;-61
2024/02/06 07:29:20;;;;;;;14.55;2.97;;;12.30;99.90;;;;;;5106855;28;20059;-60
2024/02/06 07:31:47;;;;;;;15.13;3.30;;;12.30;99.90;;;;;;5100044;28;20492;-60
2024/02/06 07:34:14;;;;;;;16.27;3.05;;;12.20;99.90;;;;;;5098002;28;20047;-60
2024/02/06 07:36:41;;;;;;;17.45;3.45;;;12.20;99.90;;;;;;5094569;28;20051;-64
2024/02/06 07:39:08;;;;;;;15.75;3.60;;;12.20;99.90;;;;;;5099517;28;20051;-61
2024/02/06 07:41:35;;;;;;;8.70;2.40;;;12.20;99.90;;;;;;5101506;28;20530;-59
2024/02/06 07:44:03;;;;;;;15.65;4.43;;;12.20;99.90;;;;;;5089556;28;20082;-59
2024/02/06 07:46:31;;;;;;;12.18;2.80;;;12.10;99.90;;;;;;5098821;28;20043;-60
2024/02/06 07:48:58;;;;;;;15.75;3.55;;;12.10;99.90;;;;;;5098426;28;20066;-61
2024/02/06 07:51:25;;;;;;;13.13;2.90;;;12.20;99.90;;;;;;5099051;28;20051;-59
2024/02/06 07:53:54;;;;;;;20.42;3.13;;;12.20;99.90;;;;;;5092181;28;20123;-59
2024/02/06 07:56:20;;;;;;;16.33;3.08;;;12.20;99.90;;;;;;5097014;28;20058;-60
2024/02/06 07:58:48;;;;;;;12.60;2.10;;;12.20;99.90;;;;;;5097636;28;20054;-60
2024/02/06 08:01:15;;;;;;;18.45;3.90;;;12.30;99.90;;;;;;5100246;28;20116;-59
2024/02/06 08:03:42;;;;;;;15.18;2.75;;;12.30;99.90;;;;;;5100996;28;20058;-60
2024/02/06 08:06:09;;;;;;;7.78;2.53;;;12.30;99.90;;;;;;5094900;28;20055;-60
2024/02/06 08:08:36;;;;;;;15.50;2.60;;;12.30;99.90;;;;;;5095144;28;20051;-60
2024/02/06 08:11:03;;;;;;;10.98;3.35;;;12.40;99.90;;;;;;5093661;28;20136;-62
2024/02/06 08:13:29;;;;;;;11.60;2.50;;;12.30;99.90;;;;;;5102066;28;20512;-61
2024/02/06 08:15:56;;;;;;;12.88;3.15;;;12.30;99.90;;;;;;5092397;28;20053;-61
2024/02/06 08:18:23;;;;;;;17.20;2.88;;;12.30;99.90;;;;;;5094435;28;20052;-60
2024/02/06 08:20:50;;;;;;;14.68;2.80;;;12.30;99.90;;;;;;5094568;28;20090;-60
2024/02/06 08:23:17;;;;;;;14.70;2.75;;;12.20;99.90;;;;;;5090710;28;20044;-60
2024/02/06 08:25:44;;;;;;;15.27;2.60;;;12.10;99.90;;;;;;5094108;28;20464;-59
2024/02/06 08:28:11;;;;;;;15.82;2.75;;;12.10;99.90;;;;;;5095396;28;20490;-60
2024/02/06 08:30:38;;;;;;;10.57;3.10;;;12.10;99.90;;;;;;5097277;28;20132;-60
2024/02/06 08:33:05;;;;;;;15.05;3.58;;;12.10;99.90;;;;;;5091581;28;20928;-60
2024/02/06 08:35:32;;;;;;;17.27;3.20;;;12.20;99.90;;;;;;5092720;28;20075;-60
2024/02/06 08:38:00;;;;;;;14.00;2.92;;;12.20;99.90;;;;;;5100990;28;20044;-60
2024/02/06 08:40:27;;;;;;;13.55;2.10;;;12.20;99.90;;;;;;5090561;28;20040;-60
2024/02/06 08:42:53;;;;;;;13.27;3.17;;;12.30;99.90;;;;;;5104710;28;20116;-60
2024/02/06 08:45:20;;;;;;;9.68;2.05;;;12.30;99.90;;;;;;5101656;28;20511;-60
2024/02/06 08:47:47;;;;;;;9.02;1.95;;;12.30;99.90;;;;;;5094795;27;20051;-60
2024/02/06 08:50:14;;;;;;;9.80;1.75;;;12.30;99.90;;;;;;5100438;28;20131;-60
2024/02/06 08:52:42;;;;;;;9.30;2.47;;;12.30;99.90;;;;;;5103595;28;20102;-59
2024/02/06 08:55:09;;;;;;;12.77;2.72;;;12.40;99.90;;;;;;5099907;28;20108;-59
2024/02/06 08:57:36;;;;;;;8.65;2.03;;;12.30;99.90;;;;;;5093866;27;20063;-60
2024/02/06 09:00:04;;;;;;;10.25;2.13;;;12.30;99.90;;;;;;5099625;28;20051;-60
2024/02/06 09:02:32;;;;;;;9.40;2.55;;;12.30;99.90;;;;;;5092188;28;20054;-60
2024/02/06 09:04:59;;;;;;;19.00;2.63;;;12.20;99.90;;;;;;5091955;28;20055;-60
2024/02/06 09:07:26;;;;;;;11.27;3.58;;;12.40;99.90;;;;;;5101076;28;20051;-60
2024/02/06 09:09:59;;;;;;;8.25;2.58;;;12.30;99.90;;;;;;5094557;28;20507;-60
2024/02/06 09:12:26;;;;;;;11.07;2.40;;;12.30;99.90;;;;;;5098158;28;20054;-59
2024/02/06 09:14:56;;;;;;;16.40;2.33;;;12.40;99.90;;;;;;5098471;28;20047;-59
2024/02/06 09:17:23;;;;;;;11.90;2.20;;;12.40;99.90;;;;;;5093218;28;20050;-59
2024/02/06 09:19:50;;;;;;;10.25;2.65;;;12.40;99.90;;;;;;5096180;28;20119;-59
2024/02/06 09:22:17;;;;;;;7.65;1.83;;;12.40;99.90;;;;;;5103071;28;20055;-60
2024/02/06 09:24:44;;;;;;;12.77;2.78;;;12.40;99.90;;;;;;5096931;28;20058;-59
2024/02/06 09:27:11;;;;;;;13.27;2.63;;;12.50;99.90;;;;;;5100947;28;20051;-60
2024/02/06 09:29:38;;;;;;;18.42;3.33;;;12.50;99.90;;;;;;5094590;28;20051;-60
2024/02/06 09:32:05;;;;;;;13.02;1.98;;;12.50;99.90;;;;;;5102681;28;20039;-60
2024/02/06 09:34:32;;;;;;;18.95;2.95;;;12.60;99.90;;;;;;5099031;28;20055;-62
2024/02/06 09:36:59;;;;;;;11.15;1.85;;;12.60;99.90;;;;;;5091683;28;20795;-59
2024/02/06 09:39:26;;;;;;;11.30;2.33;;;12.60;99.90;;;;;;5090582;28;20036;-60
2024/02/06 09:41:53;;;;;;;17.48;2.38;;;12.60;99.90;;;;;;5103270;28;20055;-63
2024/02/06 09:44:20;;;;;;;17.35;2.60;;;12.70;99.90;;;;;;5099915;28;20043;-59
2024/02/06 09:46:49;;;;;;;14.93;2.35;;;12.70;99.90;;;;;;5099038;28;20062;-59
2024/02/06 09:49:17;;;;;;;16.10;2.58;;;12.70;99.90;;;;;;5094690;28;20048;-59
2024/02/06 09:51:44;;;;;;;11.63;3.05;;;12.70;99.90;;;;;;5101945;28;20062;-60
2024/02/06 09:54:11;;;;;;;18.35;3.00;;;12.80;99.90;;;;;;5102861;28;20127;-61
2024/02/06 09:56:38;;;;;;;18.45;2.80;;;12.90;99.90;;;;;;5092657;28;20093;-58
2024/02/06 09:59:05;;;;;;;9.35;2.53;;;12.90;99.90;;;;;;5073668;28;20511;-60
2024/02/06 10:01:35;;;;;;;17.48;3.45;;;12.90;99.90;;;;;;5099878;28;20144;-60
2024/02/06 10:04:03;;;;;;;27.65;3.65;;;12.90;99.90;;;;;;5096750;28;20130;-59
2024/02/06 10:06:31;;;;;;;12.63;2.25;;;13.00;99.90;;;;;;5092887;28;20040;-60
2024/02/06 10:08:58;;;;;;;15.63;2.42;;;13.00;99.90;;;;;;5090030;28;20130;-60
2024/02/06 10:11:25;;;;;;;15.40;2.92;;;13.00;99.90;;;;;;5094642;28;20051;-59
2024/02/06 10:13:51;;;;;;;17.75;3.03;;;13.00;99.90;;;;;;5098217;28;20561;-59
2024/02/06 10:16:18;;;;;;;21.27;3.55;;;13.00;99.90;;;;;;5101664;28;20516;-60
2024/02/06 10:18:53;;;;;;;15.25;3.10;;;13.10;99.90;;;;;;5100611;28;20051;-58
2024/02/06 10:21:20;;;;;;;13.63;2.83;;;13.10;99.90;;;;;;5091184;28;20047;-63
2024/02/06 10:23:48;;;;;;;16.17;3.53;;;13.10;99.90;;;;;;5095732;28;20044;-59
2024/02/06 10:26:21;;;;;;;16.85;2.70;;;13.20;99.90;;;;;;5088780;28;20131;-60
2024/02/06 10:28:47;;;;;;;16.97;3.03;;;13.20;99.90;;;;;;5095211;28;20476;-60
2024/02/06 10:31:15;;;;;;;20.10;3.95;;;13.20;99.90;;;;;;5101048;28;20071;-59
2024/02/06 10:33:42;;;;;;;18.75;3.40;;;13.20;99.90;;;;;;5096491;28;20142;-60
2024/02/06 10:36:10;;;;;;;12.52;2.72;;;13.30;99.90;;;;;;5086552;28;20096;-60
2024/02/06 10:38:37;;;;;;;18.85;3.33;;;13.30;99.90;;;;;;5092257;28;20548;-60
2024/02/06 10:41:08;;;;;;;13.02;3.83;;;13.30;99.90;;;;;;5096171;28;20047;-60
2024/02/06 10:43:50;;;;;;;18.40;3.42;;;13.40;99.90;;;;;;5091615;28;20049;-60
2024/02/06 10:46:22;;;;;;;12.23;2.55;;;13.40;99.90;;;;;;5078950;28;20079;-59
2024/02/06 10:48:53;;;;;;;19.65;2.85;;;13.40;99.90;;;;;;5088571;28;20067;-60
2024/02/06 10:51:23;;;;;;;17.65;3.42;;;13.50;99.90;;;;;;5096328;28;20093;-59
2024/02/06 10:53:57;;;;;;;19.05;3.95;;;13.50;99.90;;;;;;5097069;28;20504;-60
2024/02/06 10:56:24;;;;;;;19.83;3.70;;;13.50;99.90;;;;;;5100547;28;20102;-59
2024/02/06 10:59:02;;;;;;;11.25;3.35;;;13.60;99.90;;;;;;5097961;28;20558;-60
2024/02/06 11:01:34;;;;;;;20.73;3.58;;;13.50;99.90;;;;;;5095812;28;20123;-60
2024/02/06 11:04:08;;;;;;;20.15;3.38;;;13.50;99.90;;;;;;5097547;28;20502;-60
2024/02/06 11:06:43;;;;;;;19.02;4.38;;;13.50;99.90;;;;;;5089051;28;20044;-60
2024/02/06 11:09:11;;;;;;;16.05;4.20;;;13.50;99.90;;;;;;5098239;28;20055;-60
2024/02/06 11:11:38;;;;;;;21.73;3.65;;;13.50;99.90;;;;;;5100486;28;20040;-60
2024/02/06 11:14:05;;;;;;;25.65;4.25;;;13.50;99.90;;;;;;5077563;28;20096;-60
2024/02/06 11:16:34;;;;;;;19.25;5.40;;;13.50;99.90;;;;;;5098087;28;20075;-59
2024/02/06 11:19:13;;;;;;;14.02;2.78;;;13.50;99.90;;;;;;5100936;28;20071;-60
2024/02/06 11:21:44;;;;;;;15.25;3.85;;;13.60;99.90;;;;;;5108939;28;20888;-59
2024/02/06 11:24:11;;;;;;;23.35;3.80;;;13.60;99.90;;;;;;5105639;28;20055;-59
2024/02/06 11:26:39;;;;;;;26.40;3.85;;;13.60;99.90;;;;;;5090651;28;20155;-59
2024/02/06 11:29:07;;;;;;;20.55;3.45;;;13.60;99.90;;;;;;5093206;28;20139;-59
2024/02/06 11:31:37;;;;;;;14.38;3.47;;;13.70;99.90;;;;;;5095896;28;20036;-60
2024/02/06 11:34:14;;;;;;;22.98;5.05;;;13.60;99.90;;;;;;5096120;28;20081;-60
2024/02/06 11:36:41;;;;;;;21.50;3.72;;;13.80;99.90;;;;;;5091923;28;20048;-60
2024/02/06 11:39:09;;;;;;;21.15;4.32;;;13.80;99.90;;;;;;5102966;28;20067;-59
2024/02/06 11:41:36;;;;;;;21.77;4.78;;;13.80;99.90;;;;;;5095727;28;20040;-60
2024/02/06 11:44:10;;;;;;;31.33;4.40;;;13.90;99.90;;;;;;5091575;28;20056;-60
2024/02/06 11:46:44;;;;;;;;;;;13.80;99.90;;;;;;5092222;28;20048;-60
2024/02/06 11:49:12;;;;;;;18.63;4.03;;;13.80;99.90;;;;;;5102198;28;19934;-60
2024/02/06 11:51:39;;;;;;;33.38;4.38;;;13.70;99.90;;;;;;5102613;28;20048;-60
2024/02/06 11:54:15;;;;;;;20.05;4.45;;;13.80;99.90;;;;;;5092577;28;20751;-59
2024/02/06 11:56:42;;;;;;;25.90;4.68;;;13.80;99.90;;;;;;5096627;28;20100;-59
2024/02/06 11:59:11;;;;;;;21.90;4.35;;;13.80;99.90;;;;;;5095721;28;20492;-59
2024/02/06 12:01:39;;;;;;;23.77;5.22;;;13.70;99.90;;;;;;5093341;28;20062;-60
2024/02/06 12:04:10;;;;;;;17.77;4.25;;;13.70;99.90;;;;;;5096385;28;20128;-59
2024/02/06 12:06:38;;;;;;;17.23;3.25;;;13.70;99.90;;;;;;5094890;28;20360;-60
2024/02/06 12:09:07;;;;;;;23.15;3.72;;;13.70;99.90;;;;;;5101983;28;20080;-60
2024/02/06 12:11:37;;;;;;;17.30;3.90;;;13.80;99.90;;;;;;5092297;28;20052;-60
2024/02/06 12:14:04;;;;;;;17.10;3.95;;;13.80;99.90;;;;;;5100070;28;20161;-60
2024/02/06 12:16:31;;;;;;;27.95;4.93;;;13.90;99.90;;;;;;5098885;28;20037;-59
2024/02/06 12:18:59;;;;;;;18.02;3.90;;;13.90;99.90;;;;;;5092382;28;20062;-59
2024/02/06 12:21:26;;;;;;;16.13;4.50;;;13.90;99.90;;;;;;5098091;28;20116;-59
2024/02/06 12:24:03;;;;;;;19.08;3.60;;;14.00;99.90;;;;;;5102432;28;20052;-60
2024/02/06 12:26:30;;;;;;;16.30;4.50;;;14.00;99.90;;;;;;5094272;28;20040;-59
2024/02/06 12:29:05;;;;;;;15.93;3.92;;;14.10;99.90;;;;;;5103020;28;20092;-60
2024/02/06 12:31:36;;;;;;;18.05;5.38;;;14.00;99.90;;;;;;5097092;28;20079;-60
2024/02/06 12:34:10;;;;;;;21.23;3.25;;;14.00;99.90;;;;;;5102893;28;20074;-59
2024/02/06 12:36:37;;;;;;;22.55;4.22;;;14.10;99.90;;;;;;5100606;28;20097;-59
2024/02/06 12:39:13;;;;;;;18.23;4.20;;;14.10;99.90;;;;;;5101996;28;20518;-59